createdAt,value
2022-11-25T00:01:42.954Z,94136.81
2022-11-25T00:03:47.087Z,95656.22
2022-11-25T00:05:51.173Z,95768.94
2022-11-25T00:07:53.945Z,95833.81
2022-11-25T00:09:56.754Z,94716.22
2022-11-25T00:11:59.558Z,95808.47
2022-11-25T00:14:02.236Z,95763.19
2022-11-25T00:16:06.288Z,95797.41
2022-11-25T00:18:09.055Z,95798.03
2022-11-25T00:20:12.174Z,95801.56
2022-11-25T00:22:16.639Z,95802.38
2022-11-25T00:24:19.360Z,95626.25
2022-11-25T00:26:23.387Z,94242.06
2022-11-25T00:28:26.085Z,95802.69
2022-11-25T00:30:28.780Z,95786.28
2022-11-25T00:32:31.526Z,95569.53
2022-11-25T00:34:35.236Z,95790.75
2022-11-25T00:36:38.838Z,95512.50
2022-11-25T00:38:42.936Z,95118.88
2022-11-25T00:41:05.879Z,95663.38
2022-11-25T00:43:27.351Z,95787.38
2022-11-25T00:45:29.173Z,95791.88
2022-11-25T00:47:31.988Z,95568.19
2022-11-25T00:49:34.815Z,95784.19
2022-11-25T00:51:37.752Z,95780.84
2022-11-25T00:53:40.511Z,95422.97
2022-11-25T00:56:02.098Z,95776.66
2022-11-25T00:58:04.960Z,95784.22
2022-11-25T01:00:09.164Z,95576.94
2022-11-25T01:02:12.799Z,95773.56
2022-11-25T01:04:15.984Z,95727.22
2022-11-25T01:06:18.764Z,95768.63
2022-11-25T01:08:21.587Z,95777.41
2022-11-25T01:10:24.346Z,95568.38
2022-11-25T01:12:28.528Z,95778.44
2022-11-25T01:14:31.318Z,95780.47
2022-11-25T01:16:34.279Z,95783.34
2022-11-25T01:18:37.261Z,95989.91
2022-11-25T01:20:40.053Z,95516.28
2022-11-25T01:22:42.840Z,95796.00
2022-11-25T01:24:45.678Z,95791.06
2022-11-25T01:26:48.514Z,95784.53
2022-11-25T01:28:55.561Z,95748.69
2022-11-25T01:31:02.972Z,95783.13
2022-11-25T01:33:05.718Z,95620.25
2022-11-25T01:35:09.758Z,96021.25
2022-11-25T01:37:13.039Z,95785.03
2022-11-25T01:39:19.752Z,95581.31
2022-11-25T01:41:24.102Z,95637.34
2022-11-25T01:43:27.489Z,95791.34
2022-11-25T01:45:37.119Z,95470.34
2022-11-25T01:47:39.933Z,94986.19
2022-11-25T01:49:47.616Z,95487.19
2022-11-25T01:51:55.302Z,95717.72
2022-11-25T01:54:02.705Z,95582.34
2022-11-25T01:56:05.954Z,95790.91
2022-11-25T01:58:13.656Z,95186.41
2022-11-25T02:00:17.760Z,95637.13
2022-11-25T02:02:22.966Z,95420.13
2022-11-25T02:04:31.814Z,95789.03
2022-11-25T02:06:39.895Z,95762.97
2022-11-25T02:08:44.777Z,94750.63
2022-11-25T02:10:47.879Z,95393.22
2022-11-25T02:12:51.403Z,95760.81
2022-11-25T02:14:57.844Z,95759.13
2022-11-25T02:17:02.381Z,95765.97
2022-11-25T02:19:09.200Z,95767.34
2022-11-25T02:21:12.254Z,95367.25
2022-11-25T02:23:25.875Z,95091.63
2022-11-25T02:25:34.122Z,95582.72
2022-11-25T02:27:37.024Z,95634.63
2022-11-25T02:29:40.791Z,94971.59
2022-11-25T02:31:45.012Z,95773.94
2022-11-25T02:33:48.888Z,94693.22
2022-11-25T02:35:56.075Z,95762.09
2022-11-25T02:38:05.182Z,95611.88
2022-11-25T02:40:09.238Z,94668.88
2022-11-25T02:42:13.881Z,95772.13
2022-11-25T02:44:16.738Z,95553.16
2022-11-25T02:46:22.834Z,95572.16
2022-11-25T02:48:46.144Z,95547.72
2022-11-25T02:50:50.139Z,95397.47
2022-11-25T02:52:52.932Z,95686.59
2022-11-25T02:54:55.947Z,95766.38
2022-11-25T02:56:58.727Z,95554.63
2022-11-25T02:59:03.806Z,95669.56
2022-11-25T03:01:06.987Z,95765.81
2022-11-25T03:03:10.307Z,94967.34
2022-11-25T03:05:13.219Z,95777.72
2022-11-25T03:07:16.039Z,95745.06
2022-11-25T03:09:18.910Z,95748.72
2022-11-25T03:11:41.825Z,95752.75
2022-11-25T03:13:44.892Z,95751.91
2022-11-25T03:15:49.225Z,95759.19
2022-11-25T03:17:52.065Z,95023.31
2022-11-25T03:19:54.967Z,95739.44
2022-11-25T03:21:57.762Z,95741.47
2022-11-25T03:24:00.585Z,95160.09
2022-11-25T03:26:06.805Z,95751.44
2022-11-25T03:28:10.227Z,95741.41
2022-11-25T03:30:15.188Z,94855.97
2022-11-25T03:32:20.567Z,95610.66
2022-11-25T03:34:23.748Z,95737.06
2022-11-25T03:36:26.760Z,95736.84
2022-11-25T03:38:29.521Z,95730.72
2022-11-25T03:40:32.360Z,95729.09
2022-11-25T03:42:35.450Z,95508.50
2022-11-25T03:44:39.367Z,95736.69
2022-11-25T03:46:42.243Z,95639.41
2022-11-25T03:48:46.432Z,95521.47
2022-11-25T03:50:49.420Z,94344.44
2022-11-25T03:52:52.208Z,95730.75
2022-11-25T03:54:55.864Z,95725.97
2022-11-25T03:57:02.103Z,95737.91
2022-11-25T03:59:06.126Z,95738.00
2022-11-25T04:01:09.202Z,95524.38
2022-11-25T04:03:12.381Z,95682.25
2022-11-25T04:05:17.190Z,95744.63
2022-11-25T04:07:20.047Z,95742.88
2022-11-25T04:09:25.695Z,95618.25
2022-11-25T04:11:43.978Z,95531.53
2022-11-25T04:13:47.750Z,94818.22
2022-11-25T04:15:52.033Z,95728.34
2022-11-25T04:17:55.863Z,95727.53
2022-11-25T04:19:58.673Z,95727.16
2022-11-25T04:22:02.876Z,95719.03
2022-11-25T04:24:08.437Z,95721.53
2022-11-25T04:26:11.278Z,95737.59
2022-11-25T04:28:16.659Z,95732.78
2022-11-25T04:30:20.295Z,95732.41
2022-11-25T04:32:24.145Z,95293.50
2022-11-25T04:34:27.047Z,95745.19
2022-11-25T04:36:30.265Z,95744.03
2022-11-25T04:38:34.621Z,95544.44
2022-11-25T04:40:38.751Z,94390.91
2022-11-25T04:42:50.109Z,94970.34
2022-11-25T04:45:21.400Z,95031.09
2022-11-25T04:47:19.437Z,95540.69
2022-11-25T04:49:22.215Z,95538.22
2022-11-25T04:51:25.315Z,94947.22
2022-11-25T04:53:34.832Z,95742.94
2022-11-25T04:55:37.698Z,94747.47
2022-11-25T04:57:44.783Z,94922.06
2022-11-25T04:59:48.868Z,95961.41
2022-11-25T05:01:51.720Z,95745.19
2022-11-25T05:04:02.180Z,95059.41
2022-11-25T05:06:07.422Z,95743.19
2022-11-25T05:08:11.755Z,94854.72
2022-11-25T05:10:17.725Z,95746.03
2022-11-25T05:12:25.557Z,94949.03
2022-11-25T05:14:28.519Z,94889.59
2022-11-25T05:16:31.390Z,95736.28
2022-11-25T05:18:35.195Z,95754.22
2022-11-25T05:20:38.288Z,95752.38
2022-11-25T05:22:41.114Z,95749.34
2022-11-25T05:24:51.898Z,95633.59
2022-11-25T05:26:57.109Z,95745.63
2022-11-25T05:28:59.931Z,95752.78
2022-11-25T05:31:03.283Z,95757.66
2022-11-25T05:33:06.299Z,95756.84
2022-11-25T05:35:10.636Z,95757.06
2022-11-25T05:37:18.794Z,95766.47
2022-11-25T05:39:30.798Z,94936.00
2022-11-25T05:41:52.107Z,95545.38
2022-11-25T05:43:57.108Z,94977.25
2022-11-25T05:46:00.583Z,95753.97
2022-11-25T05:48:03.550Z,95606.91
2022-11-25T05:50:09.319Z,95770.22
2022-11-25T05:52:12.056Z,95576.16
2022-11-25T05:54:23.352Z,94818.16
2022-11-25T05:56:26.431Z,95556.28
2022-11-25T05:58:53.650Z,93958.09
2022-11-25T06:00:58.229Z,95616.56
2022-11-25T06:03:02.768Z,94940.22
2022-11-25T06:05:06.447Z,95323.81
2022-11-25T06:07:09.342Z,95784.88
2022-11-25T06:09:12.186Z,95793.84
2022-11-25T06:11:16.669Z,95785.06
2022-11-25T06:13:20.677Z,95788.16
2022-11-25T06:15:23.503Z,95569.25
2022-11-25T06:17:29.925Z,95118.25
2022-11-25T06:19:53.074Z,95586.34
2022-11-25T06:21:56.009Z,94872.28
2022-11-25T06:24:00.270Z,95791.56
2022-11-25T06:26:07.569Z,94147.41
2022-11-25T06:28:13.202Z,94855.88
2022-11-25T06:30:20.294Z,95029.59
2022-11-25T06:32:37.611Z,95795.38
2022-11-25T06:34:52.444Z,95812.34
2022-11-25T06:37:21.355Z,95805.34
2022-11-25T06:39:24.163Z,95810.03
2022-11-25T06:41:26.954Z,95412.47
2022-11-25T06:43:30.302Z,95817.38
2022-11-25T06:45:33.473Z,95812.66
2022-11-25T06:47:37.587Z,95615.00
2022-11-25T06:49:40.415Z,95616.94
2022-11-25T06:51:43.176Z,95105.72
2022-11-25T06:53:45.935Z,95709.72
2022-11-25T06:55:48.695Z,95643.84
2022-11-25T06:57:55.934Z,95406.78
2022-11-25T07:00:11.779Z,95625.19
2022-11-25T07:02:14.934Z,95829.28
2022-11-25T07:04:19.123Z,95849.88
2022-11-25T07:06:22.464Z,95631.63
2022-11-25T07:08:28.334Z,95850.22
2022-11-25T07:10:35.948Z,95831.19
2022-11-25T07:12:38.792Z,95838.91
2022-11-25T07:14:41.606Z,95845.00
2022-11-25T07:16:46.309Z,95381.63
2022-11-25T07:18:49.113Z,95842.66
2022-11-25T07:20:53.247Z,95841.25
2022-11-25T07:22:55.998Z,95282.00
2022-11-25T07:24:58.755Z,95860.44
2022-11-25T07:27:01.486Z,95724.09
2022-11-25T07:29:13.894Z,95764.03
2022-11-25T07:31:32.057Z,94957.59
2022-11-25T07:33:36.796Z,95741.19
2022-11-25T07:35:39.582Z,95504.31
2022-11-25T07:37:43.720Z,95871.34
2022-11-25T07:39:46.502Z,95869.94
2022-11-25T07:41:51.187Z,95873.59
2022-11-25T07:43:56.702Z,95881.97
2022-11-25T07:46:13.210Z,95691.66
2022-11-25T07:48:15.982Z,95313.44
2022-11-25T07:50:18.736Z,95736.19
2022-11-25T07:52:21.505Z,95888.38
2022-11-25T07:54:25.740Z,95874.59
2022-11-25T07:56:29.232Z,95886.88
2022-11-25T07:58:31.978Z,95788.53
2022-11-25T08:00:34.799Z,95352.09
2022-11-25T08:02:37.678Z,95891.69
2022-11-25T08:04:40.566Z,95899.03
2022-11-25T08:06:45.836Z,95869.78
2022-11-25T08:08:48.966Z,95895.94
2022-11-25T08:10:53.044Z,95888.91
2022-11-25T08:12:55.815Z,95897.66
2022-11-25T08:14:58.576Z,95851.94
2022-11-25T08:17:01.346Z,95574.59
2022-11-25T08:19:06.505Z,95884.56
2022-11-25T08:21:11.255Z,95867.50
2022-11-25T08:23:14.090Z,95880.94
2022-11-25T08:25:17.193Z,95890.78
2022-11-25T08:27:21.342Z,95888.03
2022-11-25T08:29:24.090Z,95895.06
2022-11-25T08:31:29.314Z,95902.00
2022-11-25T08:33:32.299Z,94715.94
2022-11-25T08:35:37.896Z,95906.59
2022-11-25T08:37:41.431Z,95906.59
2022-11-25T08:39:52.310Z,95903.47
2022-11-25T08:41:55.852Z,95907.19
2022-11-25T08:44:02.239Z,95898.34
2022-11-25T08:46:09.874Z,95911.69
2022-11-25T08:48:12.661Z,95910.22
2022-11-25T08:50:16.513Z,95922.88
2022-11-25T08:52:19.325Z,95921.31
2022-11-25T08:54:22.139Z,95718.13
2022-11-25T08:56:26.701Z,95914.63
2022-11-25T08:58:29.523Z,95913.41
2022-11-25T09:00:33.691Z,95913.53
2022-11-25T09:02:36.473Z,95919.78
2022-11-25T09:04:39.325Z,95919.19
2022-11-25T09:06:42.092Z,95920.41
2022-11-25T09:08:45.537Z,96044.38
2022-11-25T09:10:48.421Z,95392.47
2022-11-25T09:12:51.280Z,95658.09
2022-11-25T09:14:54.047Z,95452.44
2022-11-25T09:16:58.180Z,95906.38
2022-11-25T09:19:01.976Z,95915.56
2022-11-25T09:21:10.770Z,95808.25
2022-11-25T09:23:14.289Z,95925.72
2022-11-25T09:25:17.106Z,95917.34
2022-11-25T09:27:19.884Z,95928.16
2022-11-25T09:29:22.732Z,95857.34
2022-11-25T09:31:25.919Z,95927.00
2022-11-25T09:33:30.294Z,95927.13
2022-11-25T09:35:33.068Z,95923.75
2022-11-25T09:37:35.887Z,95924.91
2022-11-25T09:39:39.016Z,95924.47
2022-11-25T09:42:15.463Z,95934.47
2022-11-25T09:44:52.133Z,95923.41
2022-11-25T09:47:04.830Z,95926.78
2022-11-25T09:49:21.818Z,95934.91
2022-11-25T09:51:34.579Z,95935.38
2022-11-25T09:53:44.353Z,95701.44
2022-11-25T09:55:50.768Z,95922.00
2022-11-25T09:58:03.113Z,95790.50
2022-11-25T10:00:12.615Z,95925.53
2022-11-25T10:02:26.218Z,95928.63
2022-11-25T10:04:38.731Z,95940.69
2022-11-25T10:06:51.961Z,95931.97
2022-11-25T10:08:59.946Z,95939.00
2022-11-25T10:11:15.841Z,95492.22
2022-11-25T10:13:23.142Z,94988.56
2022-11-25T10:15:30.036Z,95851.63
2022-11-25T10:17:43.137Z,95926.34
2022-11-25T10:19:57.924Z,95948.63
2022-11-25T10:22:03.438Z,95951.16
2022-11-25T10:24:07.859Z,95882.38
2022-11-25T10:26:14.436Z,95941.66
2022-11-25T10:28:21.037Z,95440.31
2022-11-25T10:30:26.272Z,95942.78
2022-11-25T10:32:34.797Z,95951.72
2022-11-25T10:34:41.795Z,95955.34
2022-11-25T10:36:47.005Z,95590.72
2022-11-25T10:38:58.322Z,95946.06
2022-11-25T10:41:04.642Z,95950.53
2022-11-25T10:43:13.907Z,95951.88
2022-11-25T10:45:16.767Z,95963.91
2022-11-25T10:47:34.477Z,95987.16
2022-11-25T10:49:46.749Z,95963.28
2022-11-25T10:51:52.253Z,95952.16
2022-11-25T10:54:17.038Z,95951.50
2022-11-25T10:56:19.969Z,95961.41
2022-11-25T10:58:33.211Z,95962.88
2022-11-25T11:00:38.214Z,95023.78
2022-11-25T11:02:48.039Z,95962.53
2022-11-25T11:04:55.228Z,95960.56
2022-11-25T11:07:09.207Z,95965.16
2022-11-25T11:09:34.267Z,95898.81
2022-11-25T11:11:48.646Z,95236.66
2022-11-25T11:13:59.555Z,95970.94
2022-11-25T11:16:02.389Z,95979.38
2022-11-25T11:18:21.486Z,95862.31
2022-11-25T11:20:25.464Z,95968.00
2022-11-25T11:22:29.613Z,95671.50
2022-11-25T11:24:35.492Z,95856.53
2022-11-25T11:26:38.798Z,95981.56
2022-11-25T11:28:42.486Z,95975.72
2022-11-25T11:30:56.626Z,95990.66
2022-11-25T11:33:02.664Z,95540.72
2022-11-25T11:35:16.361Z,95987.09
2022-11-25T11:37:34.672Z,95999.03
2022-11-25T11:39:59.913Z,95992.47
2022-11-25T11:42:10.624Z,95995.22
2022-11-25T11:44:22.874Z,94998.81
2022-11-25T11:46:36.900Z,95988.56
2022-11-25T11:48:41.022Z,95995.72
2022-11-25T11:50:49.844Z,95994.50
2022-11-25T11:53:03.042Z,96055.69
2022-11-25T11:55:21.055Z,95994.97
2022-11-25T11:57:36.626Z,95998.81
2022-11-25T11:59:59.575Z,96003.03
2022-11-25T12:02:23.953Z,96006.63
2022-11-25T12:04:30.844Z,95998.25
2022-11-25T12:06:39.030Z,96007.59
2022-11-25T12:08:51.180Z,96000.53
2022-11-25T12:10:57.477Z,95463.63
2022-11-25T12:13:08.735Z,96004.25
2022-11-25T12:15:21.392Z,95725.16
2022-11-25T12:17:29.624Z,96012.22
2022-11-25T12:19:40.345Z,96019.16
2022-11-25T12:21:50.849Z,95840.75
2022-11-25T12:24:04.058Z,95619.09
2022-11-25T12:26:13.798Z,96012.25
2022-11-25T12:28:23.291Z,95846.66
2022-11-25T12:30:35.008Z,96010.84
2022-11-25T12:32:51.937Z,96024.84
2022-11-25T12:34:59.790Z,95790.81
2022-11-25T12:37:14.971Z,96024.34
2022-11-25T12:39:27.207Z,96022.66
2022-11-25T12:41:36.849Z,96027.19
2022-11-25T12:43:44.825Z,96031.41
2022-11-25T12:45:56.051Z,96017.66
2022-11-25T12:47:58.769Z,96020.13
2022-11-25T12:50:01.792Z,96031.09
2022-11-25T12:52:21.481Z,96033.72
2022-11-25T12:54:41.021Z,96032.66
2022-11-25T12:57:01.306Z,96034.06
2022-11-25T12:59:24.003Z,96043.44
2022-11-25T13:01:56.468Z,96047.31
2022-11-25T13:04:17.941Z,96043.81
2022-11-25T13:06:38.688Z,95587.97
2022-11-25T13:08:57.359Z,95529.69
2022-11-25T13:11:18.288Z,96070.94
2022-11-25T13:13:33.461Z,96057.47
2022-11-25T13:15:41.137Z,96067.47
2022-11-25T13:17:46.916Z,96062.00
2022-11-25T13:19:49.716Z,96070.38
2022-11-25T13:22:00.297Z,96062.50
2022-11-25T13:24:03.021Z,96064.88
2022-11-25T13:26:42.924Z,96064.13
2022-11-25T13:28:47.228Z,96076.41
2022-11-25T13:30:51.595Z,96083.69
2022-11-25T13:32:54.298Z,96082.16
2022-11-25T13:35:38.532Z,96088.63
2022-11-25T13:37:42.184Z,96095.91
2022-11-25T13:39:47.384Z,96095.91
2022-11-25T13:41:59.455Z,96096.97
2022-11-25T13:44:07.698Z,96111.09
2022-11-25T13:46:10.545Z,96115.75
2022-11-25T13:48:18.715Z,96122.81
2022-11-25T13:50:28.945Z,96129.44
2022-11-25T13:52:48.218Z,96125.47
2022-11-25T13:54:54.054Z,96136.34
2022-11-25T13:57:18.439Z,96124.31
2022-11-25T13:59:37.405Z,95908.41
2022-11-25T14:01:42.242Z,95274.66
2022-11-25T14:03:48.644Z,96138.47
2022-11-25T14:06:03.670Z,96295.16
2022-11-25T14:08:15.759Z,96140.22
2022-11-25T14:10:38.361Z,96149.13
2022-11-25T14:13:07.035Z,96154.00
2022-11-25T14:15:34.222Z,96157.69
2022-11-25T14:18:08.499Z,96164.53
2022-11-25T14:20:35.636Z,96150.56
2022-11-25T14:23:09.348Z,96153.78
2022-11-25T14:25:20.364Z,96170.22
2022-11-25T14:27:27.236Z,96169.50
2022-11-25T14:29:37.711Z,96170.47
2022-11-25T14:31:46.707Z,96177.25
2022-11-25T14:33:54.571Z,96182.34
2022-11-25T14:36:05.523Z,95600.97
2022-11-25T14:38:14.557Z,96182.31
2022-11-25T14:40:21.626Z,96190.31
2022-11-25T14:42:27.842Z,95744.56
2022-11-25T14:44:37.516Z,96175.25
2022-11-25T14:46:53.178Z,96189.09
2022-11-25T14:48:57.268Z,96192.03
2022-11-25T14:51:02.357Z,96182.44
2022-11-25T14:53:08.537Z,96197.38
2022-11-25T14:55:12.804Z,96199.88
2022-11-25T14:57:19.902Z,95869.94
2022-11-25T14:59:22.714Z,96208.31
2022-11-25T15:01:27.284Z,96206.06
2022-11-25T15:03:31.656Z,96210.97
2022-11-25T15:05:36.984Z,96102.03
2022-11-25T15:07:42.837Z,96215.19
2022-11-25T15:09:46.045Z,96219.16
2022-11-25T15:11:49.682Z,96231.75
2022-11-25T15:13:56.740Z,96234.28
2022-11-25T15:16:07.334Z,96232.38
2022-11-25T15:18:17.827Z,96235.16
2022-11-25T15:20:24.167Z,96223.94
2022-11-25T15:22:27.066Z,96252.91
2022-11-25T15:24:31.633Z,96243.78
2022-11-25T15:26:37.583Z,96247.88
2022-11-25T15:28:40.360Z,96257.78
2022-11-25T15:30:43.271Z,96147.53
2022-11-25T15:32:46.473Z,96257.28
2022-11-25T15:34:50.436Z,96311.06
2022-11-25T15:36:54.847Z,96258.81
2022-11-25T15:39:14.859Z,96263.28
2022-11-25T15:41:28.624Z,95741.06
2022-11-25T15:43:33.590Z,96135.84
2022-11-25T15:45:46.752Z,96277.97
2022-11-25T15:47:49.900Z,96277.03
2022-11-25T15:50:00.955Z,96290.09
2022-11-25T15:52:09.525Z,96282.72
2022-11-25T15:54:20.073Z,96020.75
2022-11-25T15:56:27.031Z,96277.38
2022-11-25T15:58:29.887Z,96283.56
2022-11-25T16:00:32.729Z,96269.91
2022-11-25T16:02:39.472Z,96277.72
2022-11-25T16:04:42.321Z,96289.03
2022-11-25T16:06:54.996Z,96284.03
2022-11-25T16:09:01.107Z,96042.47
2022-11-25T16:11:19.428Z,96277.97
2022-11-25T16:13:31.717Z,96274.25
2022-11-25T16:15:44.879Z,96352.72
2022-11-25T16:17:48.385Z,96284.50
2022-11-25T16:19:51.250Z,96300.88
2022-11-25T16:22:02.669Z,96298.69
2022-11-25T16:24:15.399Z,96289.88
2022-11-25T16:26:22.727Z,95377.25
2022-11-25T16:28:26.024Z,96304.47
2022-11-25T16:30:29.382Z,96312.00
2022-11-25T16:32:33.550Z,96306.00
2022-11-25T16:34:36.655Z,96316.56
2022-11-25T16:36:39.557Z,96140.16
2022-11-25T16:38:42.518Z,96317.75
2022-11-25T16:40:48.054Z,96065.66
2022-11-25T16:42:53.321Z,96329.13
2022-11-25T16:44:56.054Z,96331.00
2022-11-25T16:46:59.804Z,96327.34
2022-11-25T16:49:09.141Z,96327.84
2022-11-25T16:51:15.737Z,96331.13
2022-11-25T16:53:19.226Z,96334.03
2022-11-25T16:55:22.478Z,96229.06
2022-11-25T16:57:26.581Z,96346.44
2022-11-25T16:59:33.826Z,96340.78
2022-11-25T17:01:36.709Z,96150.78
2022-11-25T17:03:39.908Z,96351.78
2022-11-25T17:05:42.677Z,96248.88
2022-11-25T17:07:46.628Z,96382.63
2022-11-25T17:09:49.465Z,96355.22
2022-11-25T17:11:55.435Z,96357.38
2022-11-25T17:14:02.578Z,96358.69
2022-11-25T17:16:06.164Z,96353.00
2022-11-25T17:18:09.316Z,96351.91
2022-11-25T17:20:16.831Z,96213.56
2022-11-25T17:22:21.319Z,96050.94
2022-11-25T17:24:25.857Z,96106.97
2022-11-25T17:26:37.954Z,96372.31
2022-11-25T17:28:40.721Z,96388.00
2022-11-25T17:30:46.605Z,96385.34
2022-11-25T17:32:54.384Z,96383.97
2022-11-25T17:34:57.143Z,96384.72
2022-11-25T17:37:00.039Z,96397.97
2022-11-25T17:39:02.840Z,96388.19
2022-11-25T17:41:10.359Z,96395.50
2022-11-25T17:43:16.436Z,96398.44
2022-11-25T17:45:21.286Z,96404.16
2022-11-25T17:47:25.445Z,95540.75
2022-11-25T17:49:28.210Z,96207.47
2022-11-25T17:51:31.035Z,96118.72
2022-11-25T17:53:37.737Z,96403.94
2022-11-25T17:55:41.948Z,96409.31
2022-11-25T17:57:44.887Z,96415.66
2022-11-25T17:59:47.890Z,96411.81
2022-11-25T18:01:55.924Z,96420.97
2022-11-25T18:04:00.302Z,96105.25
2022-11-25T18:06:03.274Z,95668.75
2022-11-25T18:08:06.257Z,96434.06
2022-11-25T18:10:10.683Z,96439.78
2022-11-25T18:12:17.609Z,96442.88
2022-11-25T18:14:26.060Z,96480.84
2022-11-25T18:16:31.079Z,96447.78
2022-11-25T18:18:33.973Z,96447.50
2022-11-25T18:20:38.125Z,96448.03
2022-11-25T18:22:40.886Z,95659.38
2022-11-25T18:24:44.309Z,96462.34
2022-11-25T18:26:50.945Z,96426.81
2022-11-25T18:28:53.834Z,96464.03
2022-11-25T18:31:01.901Z,96466.50
2022-11-25T18:33:06.222Z,96470.75
2022-11-25T18:35:16.890Z,96469.63
2022-11-25T18:37:21.556Z,96471.44
2022-11-25T18:39:24.449Z,96476.34
2022-11-25T18:41:27.277Z,96436.44
2022-11-25T18:43:30.172Z,96379.13
2022-11-25T18:45:36.596Z,96483.22
2022-11-25T18:47:39.489Z,94649.97
2022-11-25T18:49:42.267Z,95593.47
2022-11-25T18:51:45.370Z,96491.34
2022-11-25T18:53:49.513Z,96502.72
2022-11-25T18:55:52.502Z,96495.69
2022-11-25T18:57:55.277Z,96207.88
2022-11-25T19:00:17.276Z,96508.84
2022-11-25T19:02:20.905Z,96501.84
2022-11-25T19:04:23.804Z,96245.78
2022-11-25T19:06:28.721Z,96512.56
2022-11-25T19:08:31.594Z,96516.50
2022-11-25T19:10:38.552Z,96531.09
2022-11-25T19:12:44.199Z,95585.88
2022-11-25T19:14:48.161Z,96532.84
2022-11-25T19:16:51.099Z,95524.25
2022-11-25T19:18:54.100Z,96540.44
2022-11-25T19:20:56.883Z,96539.66
2022-11-25T19:23:01.147Z,96589.38
2022-11-25T19:25:04.349Z,96250.38
2022-11-25T19:27:15.565Z,96453.19
2022-11-25T19:29:20.934Z,95772.59
2022-11-25T19:31:24.040Z,96081.34
2022-11-25T19:33:30.468Z,96551.84
2022-11-25T19:35:36.523Z,96552.44
2022-11-25T19:37:39.254Z,96252.16
2022-11-25T19:39:41.971Z,96574.41
2022-11-25T19:41:44.727Z,96313.75
2022-11-25T19:43:48.751Z,95364.34
2022-11-25T19:45:51.819Z,95960.81
2022-11-25T19:47:54.612Z,96562.91
2022-11-25T19:50:02.110Z,96573.16
2022-11-25T19:52:05.192Z,96570.72
2022-11-25T19:54:13.113Z,96579.72
2022-11-25T19:56:18.912Z,96573.56
2022-11-25T19:58:22.030Z,96584.84
2022-11-25T20:00:26.251Z,95929.88
2022-11-25T20:02:30.387Z,96521.38
2022-11-25T20:04:33.149Z,96587.28
2022-11-25T20:06:36.032Z,95767.91
2022-11-25T20:08:38.698Z,96412.19
2022-11-25T20:10:41.456Z,96491.59
2022-11-25T20:12:44.280Z,96602.25
2022-11-25T20:14:47.394Z,96700.22
2022-11-25T20:16:51.598Z,96611.03
2022-11-25T20:18:54.647Z,96617.81
2022-11-25T20:21:02.595Z,96628.00
2022-11-25T20:23:08.558Z,96496.81
2022-11-25T20:25:15.401Z,96626.59
2022-11-25T20:27:18.126Z,96334.13
2022-11-25T20:29:26.054Z,96225.09
2022-11-25T20:31:31.820Z,96632.63
2022-11-25T20:33:35.927Z,96646.38
2022-11-25T20:35:39.217Z,96646.78
2022-11-25T20:37:53.820Z,96563.81
2022-11-25T20:39:59.451Z,95631.25
2022-11-25T20:42:02.254Z,96652.63
2022-11-25T20:44:05.334Z,96297.16
2022-11-25T20:46:15.503Z,96545.75
2022-11-25T20:48:18.505Z,96567.75
2022-11-25T20:50:23.496Z,95707.28
2022-11-25T20:52:31.736Z,96663.66
2022-11-25T20:54:37.007Z,96673.31
2022-11-25T20:56:39.885Z,96331.50
2022-11-25T20:58:42.820Z,96856.91
2022-11-25T21:00:45.492Z,95787.28
2022-11-25T21:02:48.414Z,96677.78
2022-11-25T21:04:51.233Z,96681.59
2022-11-25T21:06:55.685Z,96683.25
2022-11-25T21:09:00.165Z,96685.94
2022-11-25T21:11:03.227Z,96688.41
2022-11-25T21:13:15.195Z,96470.59
2022-11-25T21:15:20.064Z,96688.81
2022-11-25T21:17:22.743Z,96688.81
2022-11-25T21:19:25.548Z,96692.72
2022-11-25T21:21:31.485Z,95967.94
2022-11-25T21:23:38.403Z,96691.75
2022-11-25T21:25:41.165Z,96690.22
2022-11-25T21:27:45.074Z,96394.34
2022-11-25T21:29:47.900Z,96705.25
2022-11-25T21:31:50.745Z,96686.97
2022-11-25T21:33:58.613Z,95652.25
2022-11-25T21:36:01.465Z,96687.13
2022-11-25T21:38:06.339Z,96685.34
2022-11-25T21:40:24.536Z,96753.28
2022-11-25T21:42:27.854Z,96692.34
2022-11-25T21:44:33.416Z,95565.81
2022-11-25T21:46:36.628Z,96343.34
2022-11-25T21:48:39.831Z,96704.53
2022-11-25T21:50:42.534Z,96703.31
2022-11-25T21:52:45.432Z,96703.28
2022-11-25T21:54:48.488Z,96224.84
2022-11-25T21:56:52.923Z,96706.59
2022-11-25T21:58:56.212Z,96712.97
2022-11-25T22:01:01.541Z,96249.19
2022-11-25T22:03:04.682Z,96716.06
2022-11-25T22:05:15.687Z,96731.25
2022-11-25T22:07:18.942Z,96873.72
2022-11-25T22:09:22.215Z,96712.38
2022-11-25T22:11:30.288Z,96722.03
2022-11-25T22:13:38.887Z,96719.75
2022-11-25T22:15:42.003Z,96568.59
2022-11-25T22:17:45.233Z,96720.78
2022-11-25T22:19:48.260Z,96641.06
2022-11-25T22:21:51.088Z,96729.19
2022-11-25T22:23:54.112Z,96728.59
2022-11-25T22:25:57.271Z,96429.25
2022-11-25T22:28:00.146Z,96535.34
2022-11-25T22:30:04.923Z,96266.72
2022-11-25T22:32:12.613Z,96739.88
2022-11-25T22:34:19.264Z,96485.03
2022-11-25T22:36:34.341Z,96746.03
2022-11-25T22:38:37.185Z,96740.69
2022-11-25T22:40:40.987Z,96630.63
2022-11-25T22:42:47.379Z,96755.50
2022-11-25T22:44:50.724Z,96744.59
2022-11-25T22:46:54.944Z,96757.97
2022-11-25T22:48:57.684Z,96575.81
2022-11-25T22:51:00.478Z,96764.31
2022-11-25T22:53:03.246Z,96762.47
2022-11-25T22:55:17.333Z,96754.25
2022-11-25T22:57:20.479Z,96757.97
2022-11-25T22:59:23.229Z,96760.22
2022-11-25T23:01:26.246Z,96761.88
2022-11-25T23:03:30.929Z,96767.81
2022-11-25T23:05:35.470Z,96601.78
2022-11-25T23:07:38.355Z,96772.75
2022-11-25T23:09:41.324Z,96772.72
2022-11-25T23:11:44.756Z,96772.34
2022-11-25T23:13:48.675Z,95875.81
2022-11-25T23:15:54.014Z,96775.22
2022-11-25T23:17:58.957Z,96375.34
2022-11-25T23:20:03.119Z,96785.06
2022-11-25T23:22:10.398Z,96779.31
2022-11-25T23:24:15.087Z,96774.59
2022-11-25T23:26:18.212Z,96785.06
2022-11-25T23:28:21.048Z,96585.03
2022-11-25T23:30:24.530Z,96787.53
2022-11-25T23:32:27.325Z,96784.47
2022-11-25T23:34:30.175Z,96797.81
2022-11-25T23:36:42.591Z,96791.22
2022-11-25T23:38:49.907Z,96796.97
2022-11-25T23:40:52.668Z,96788.97
2022-11-25T23:42:57.073Z,96796.56
2022-11-25T23:44:59.842Z,97026.19
2022-11-25T23:47:06.035Z,96796.97
2022-11-25T23:49:18.850Z,96611.50
2022-11-25T23:51:22.851Z,96797.59
2022-11-25T23:53:30.900Z,96791.63
2022-11-25T23:55:36.702Z,96801.69
2022-11-25T23:57:39.496Z,96810.09
2022-11-25T23:59:42.306Z,96805.97
